Time,TemperatureF,DewpointF,PressureIn,WindDirection,WindDirectionDegrees,WindSpeedMPH,WindSpeedGustMPH,Humidity,HourlyPrecipIn,Conditions,Clouds,dailyrainin,SoftwareType,DateUTC
2013-02-22 00:02:00,39.0,20.0,-100.00,SE,133,1.0,3.0,46,0.00,,,-99.99,,2013-02-22 05:02:00,
2013-02-22 00:12:00,39.0,19.0,-100.00,SE,131,2.0,4.0,45,0.00,,,-99.99,,2013-02-22 05:12:00,
2013-02-22 00:22:00,39.0,19.0,-100.00,SE,131,2.0,4.0,45,0.00,,,-99.99,,2013-02-22 05:22:00,
2013-02-22 00:32:00,39.0,22.0,-100.00,ESE,110,6.0,9.0,52,0.00,,,-99.99,,2013-02-22 05:32:00,
2013-02-22 00:42:00,39.0,22.0,-100.00,ESE,110,6.0,9.0,52,0.00,,,-99.99,,2013-02-22 05:42:00,
2013-02-22 00:52:00,38.0,22.0,-100.00,ESE,112,4.0,7.0,51,0.00,,,-99.99,,2013-02-22 05:52:00,
2013-02-22 01:02:00,38.0,22.0,-100.00,ESE,112,4.0,7.0,51,0.00,,,-99.99,,2013-02-22 06:02:00,
2013-02-22 01:12:00,38.0,22.0,-100.00,ESE,106,5.0,7.0,51,0.00,,,-99.99,,2013-02-22 06:12:00,
2013-02-22 01:22:00,38.0,22.0,-100.00,ESE,106,5.0,7.0,51,0.00,,,-99.99,,2013-02-22 06:22:00,
2013-02-22 01:32:00,38.0,21.0,-100.00,ESE,116,3.0,6.0,50,0.00,,,-99.99,,2013-02-22 06:32:00,
2013-02-22 01:42:00,38.0,21.0,-100.00,ESE,116,3.0,6.0,50,0.00,,,-99.99,,2013-02-22 06:42:00,
2013-02-22 01:52:00,38.0,20.0,-100.00,East,95,2.0,4.0,49,0.00,,,-99.99,,2013-02-22 06:52:00,
2013-02-22 02:01:00,38.0,20.0,-100.00,East,95,2.0,4.0,49,0.00,,,-99.99,,2013-02-22 07:01:00,
2013-02-22 02:11:00,38.0,18.0,-100.00,ESE,117,0.0,1.0,44,0.00,,,-99.99,,2013-02-22 07:11:00,
2013-02-22 02:22:00,38.0,18.0,-100.00,ESE,117,0.0,1.0,44,0.00,,,-99.99,,2013-02-22 07:22:00,
2013-02-22 02:32:00,38.0,17.0,-100.00,East,79,2.0,3.0,43,0.00,,,-99.99,,2013-02-22 07:32:00,
2013-02-22 02:42:00,38.0,17.0,-100.00,East,79,2.0,3.0,43,0.00,,,-99.99,,2013-02-22 07:42:00,
2013-02-22 02:52:00,37.0,21.0,-100.00,ESE,113,3.0,5.0,52,0.00,,,-99.99,,2013-02-22 07:52:00,
2013-02-22 03:01:00,37.0,21.0,-100.00,ESE,113,3.0,5.0,52,0.00,,,-99.99,,2013-02-22 08:01:00,
2013-02-22 03:11:00,37.0,22.0,-100.00,ESE,110,5.0,7.0,54,0.00,,,-99.99,,2013-02-22 08:11:00,
2013-02-22 03:21:00,37.0,22.0,-100.00,ESE,110,5.0,7.0,54,0.00,,,-99.99,,2013-02-22 08:21:00,
2013-02-22 03:32:00,37.0,22.0,-100.00,ESE,106,3.0,4.0,54,0.00,,,-99.99,,2013-02-22 08:32:00,
2013-02-22 03:42:00,37.0,22.0,-100.00,ESE,106,3.0,4.0,54,0.00,,,-99.99,,2013-02-22 08:42:00,
2013-02-22 03:52:00,37.0,21.0,-100.00,East,97,2.0,4.0,52,0.00,,,-99.99,,2013-02-22 08:52:00,
2013-02-22 04:03:00,37.0,21.0,-100.00,East,97,2.0,4.0,52,0.00,,,-99.99,,2013-02-22 09:03:00,
2013-02-22 04:11:00,36.0,19.0,-100.00,East,100,2.0,4.0,50,0.00,,,-99.99,,2013-02-22 09:11:00,
2013-02-22 04:22:00,36.0,19.0,-100.00,East,100,2.0,4.0,50,0.00,,,-99.99,,2013-02-22 09:22:00,
2013-02-22 04:32:00,36.0,20.0,-100.00,East,83,2.0,3.0,52,0.00,,,-99.99,,2013-02-22 09:32:00,
2013-02-22 04:42:00,36.0,20.0,-100.00,East,83,2.0,3.0,52,0.00,,,-99.99,,2013-02-22 09:42:00,
2013-02-22 04:52:00,36.0,20.0,-100.00,ESE,106,2.0,4.0,52,0.00,,,-99.99,,2013-02-22 09:52:00,
2013-02-22 05:01:00,36.0,20.0,-100.00,ESE,106,2.0,4.0,52,0.00,,,-99.99,,2013-02-22 10:01:00,
2013-02-22 05:11:00,35.0,22.0,-100.00,ESE,106,3.0,5.0,60,0.00,,,-99.99,,2013-02-22 10:11:00,
2013-02-22 05:21:00,35.0,22.0,-100.00,ESE,106,3.0,5.0,60,0.00,,,-99.99,,2013-02-22 10:21:00,
2013-02-22 05:32:00,33.0,25.0,-100.00,SE,134,3.0,5.0,70,0.11,,,-99.99,,2013-02-22 10:32:00,
2013-02-22 05:42:00,33.0,25.0,-100.00,SE,134,3.0,5.0,70,0.11,,,-99.99,,2013-02-22 10:42:00,
2013-02-22 05:52:00,33.0,26.0,-100.00,ESE,121,3.0,5.0,75,0.00,,,-99.99,,2013-02-22 10:52:00,
2013-02-22 06:01:00,33.0,26.0,-100.00,ESE,121,3.0,5.0,75,0.00,,,-99.99,,2013-02-22 11:01:00,
2013-02-22 06:11:00,34.0,25.0,-100.00,ESE,107,5.0,8.0,72,0.17,,,-99.99,,2013-02-22 11:11:00,
2013-02-22 06:22:00,33.0,27.0,-100.00,ESE,117,5.0,7.0,79,0.00,,,-99.99,,2013-02-22 11:22:00,
2013-02-22 06:32:00,33.0,27.0,-100.00,ESE,117,5.0,7.0,79,0.00,,,-99.99,,2013-02-22 11:32:00,
2013-02-22 06:42:00,33.0,27.0,-100.00,ESE,117,5.0,7.0,79,0.00,,,-99.99,,2013-02-22 11:42:00,
2013-02-22 06:52:00,33.0,27.0,-100.00,SE,124,3.0,5.0,76,0.00,,,-99.99,,2013-02-22 11:52:00,
2013-02-22 07:02:00,33.0,27.0,-100.00,SE,124,3.0,5.0,76,0.00,,,-99.99,,2013-02-22 12:02:00,
2013-02-22 07:11:00,33.0,25.0,-100.00,ENE,68,3.0,5.0,71,0.11,,,-99.99,,2013-02-22 12:11:00,
2013-02-22 07:22:00,33.0,25.0,-100.00,ENE,68,3.0,5.0,71,0.11,,,-99.99,,2013-02-22 12:22:00,
2013-02-22 07:32:00,33.0,25.0,-100.00,ESE,112,3.0,5.0,72,0.00,,,-99.99,,2013-02-22 12:32:00,
2013-02-22 07:42:00,33.0,25.0,-100.00,ESE,112,3.0,5.0,72,0.00,,,-99.99,,2013-02-22 12:42:00,
2013-02-22 07:52:00,33.0,24.0,-100.00,ESE,104,3.0,5.0,69,0.00,,,-99.99,,2013-02-22 12:52:00,
2013-02-22 08:02:00,34.0,24.0,-100.00,ESE,110,1.0,2.0,67,0.14,,,-99.99,,2013-02-22 13:02:00,
2013-02-22 08:11:00,34.0,24.0,-100.00,ESE,110,1.0,2.0,67,0.14,,,-99.99,,2013-02-22 13:11:00,
2013-02-22 08:22:00,34.0,24.0,-100.00,ESE,106,2.0,3.0,66,0.00,,,-99.99,,2013-02-22 13:22:00,
2013-02-22 08:32:00,34.0,24.0,-100.00,ESE,106,2.0,3.0,66,0.00,,,-99.99,,2013-02-22 13:32:00,
2013-02-22 08:40:00,35.0,21.0,-100.00,SSE,150,1.0,2.0,58,0.00,,,-99.99,,2013-02-22 13:40:00,
2013-02-22 08:42:00,34.0,24.0,-100.00,ESE,106,2.0,3.0,66,0.00,,,-99.99,,2013-02-22 13:42:00,
2013-02-22 08:52:00,34.0,24.0,-100.00,East,88,0.0,1.0,66,0.00,,,-99.99,,2013-02-22 13:52:00,
2013-02-22 09:01:00,34.0,24.0,-100.00,East,88,0.0,1.0,66,0.00,,,-99.99,,2013-02-22 14:01:00,
2013-02-22 09:11:00,35.0,21.0,-100.00,SSE,150,1.0,2.0,58,0.00,,,-99.99,,2013-02-22 14:11:00,
2013-02-22 09:21:00,35.0,21.0,-100.00,SSE,150,1.0,2.0,58,0.00,,,-99.99,,2013-02-22 14:21:00,
2013-02-22 09:32:00,35.0,21.0,-100.00,SSE,150,1.0,2.0,58,0.00,,,-99.99,,2013-02-22 14:32:00,
2013-02-22 09:40:00,37.0,22.0,-100.00,SE,143,2.0,4.0,55,0.00,,,-99.99,,2013-02-22 14:40:00,
2013-02-22 09:53:00,36.0,22.0,-100.00,East,82,0.0,1.0,56,0.00,,,-99.99,,2013-02-22 14:53:00,
2013-02-22 10:02:00,36.0,22.0,-100.00,East,82,0.0,1.0,56,0.00,,,-99.99,,2013-02-22 15:02:00,
2013-02-22 10:12:00,37.0,22.0,-100.00,SE,143,2.0,4.0,55,0.00,,,-99.99,,2013-02-22 15:12:00,
2013-02-22 10:22:00,37.0,22.0,-100.00,SE,143,2.0,4.0,55,0.00,,,-99.99,,2013-02-22 15:22:00,
2013-02-22 10:32:00,37.0,22.0,-100.00,SE,143,2.0,4.0,55,0.00,,,-99.99,,2013-02-22 15:32:00,
2013-02-22 11:12:00,39.0,23.0,-100.00,SE,130,2.0,2.0,53,0.00,,,-99.99,,2013-02-22 16:12:00,
2013-02-22 11:22:00,39.0,23.0,-100.00,ESE,116,3.0,5.0,53,0.00,,,-99.99,,2013-02-22 16:22:00,
2013-02-22 11:32:00,39.0,23.0,-100.00,ESE,116,3.0,5.0,53,0.00,,,-99.99,,2013-02-22 16:32:00,
2013-02-22 11:42:00,39.0,23.0,-100.00,ESE,116,3.0,5.0,53,0.00,,,-99.99,,2013-02-22 16:42:00,
2013-02-22 11:52:00,39.0,23.0,-100.00,ESE,102,2.0,4.0,51,0.00,,,-99.99,,2013-02-22 16:52:00,
2013-02-22 12:01:00,39.0,23.0,-100.00,ESE,102,2.0,4.0,51,0.00,,,-99.99,,2013-02-22 17:01:00,
2013-02-22 12:11:00,40.0,24.0,-100.00,ESE,106,4.0,6.0,52,0.00,,,-99.99,,2013-02-22 17:11:00,
2013-02-22 12:22:00,40.0,24.0,-100.00,ESE,106,4.0,6.0,52,0.00,,,-99.99,,2013-02-22 17:22:00,
2013-02-22 12:32:00,41.0,25.0,-100.00,ESE,119,3.0,4.0,52,0.00,,,-99.99,,2013-02-22 17:32:00,
2013-02-22 12:42:00,41.0,25.0,-100.00,ESE,119,3.0,4.0,52,0.00,,,-99.99,,2013-02-22 17:42:00,
2013-02-22 12:52:00,41.0,25.0,-100.00,ESE,113,2.0,4.0,53,0.00,,,-99.99,,2013-02-22 17:52:00,
2013-02-22 13:02:00,41.0,25.0,-100.00,ESE,113,2.0,4.0,53,0.00,,,-99.99,,2013-02-22 18:02:00,
2013-02-22 13:12:00,40.0,24.0,-100.00,South,191,1.0,3.0,52,0.00,,,-99.99,,2013-02-22 18:12:00,
2013-02-22 13:22:00,40.0,24.0,-100.00,South,191,1.0,3.0,52,0.00,,,-99.99,,2013-02-22 18:22:00,
2013-02-22 13:32:00,40.0,25.0,-100.00,ESE,110,2.0,3.0,55,0.00,,,-99.99,,2013-02-22 18:32:00,
2013-02-22 13:42:00,40.0,25.0,-100.00,ESE,110,2.0,3.0,55,0.00,,,-99.99,,2013-02-22 18:42:00,
2013-02-22 13:52:00,41.0,25.0,-100.00,East,99,2.0,4.0,52,0.00,,,-99.99,,2013-02-22 18:52:00,
2013-02-22 14:01:00,41.0,25.0,-100.00,East,99,2.0,4.0,52,0.00,,,-99.99,,2013-02-22 19:01:00,
2013-02-22 14:11:00,42.0,26.0,-100.00,ESE,112,2.0,4.0,53,0.00,,,-99.99,,2013-02-22 19:11:00,
2013-02-22 14:21:00,42.0,26.0,-100.00,ESE,112,2.0,4.0,53,0.00,,,-99.99,,2013-02-22 19:21:00,
2013-02-22 14:31:00,41.0,26.0,-100.00,East,97,2.0,4.0,54,0.00,,,-99.99,,2013-02-22 19:31:00,
2013-02-22 14:41:00,41.0,26.0,-100.00,East,97,2.0,4.0,54,0.00,,,-99.99,,2013-02-22 19:41:00,
2013-02-22 14:52:00,41.0,24.0,-100.00,SE,145,1.0,3.0,51,0.00,,,-99.99,,2013-02-22 19:52:00,
2013-02-22 15:01:00,41.0,24.0,-100.00,SE,145,1.0,3.0,51,0.00,,,-99.99,,2013-02-22 20:01:00,
2013-02-22 15:11:00,40.0,24.0,-100.00,WSW,246,1.0,2.0,53,0.00,,,-99.99,,2013-02-22 20:11:00,
2013-02-22 15:21:00,40.0,24.0,-100.00,WSW,246,1.0,2.0,53,0.00,,,-99.99,,2013-02-22 20:21:00,
2013-02-22 15:32:00,41.0,26.0,-100.00,East,90,1.0,3.0,55,0.00,,,-99.99,,2013-02-22 20:32:00,
2013-02-22 15:42:00,41.0,26.0,-100.00,East,90,1.0,3.0,55,0.00,,,-99.99,,2013-02-22 20:42:00,
2013-02-22 15:52:00,41.0,26.0,-100.00,ESE,114,0.0,1.0,55,0.00,,,-99.99,,2013-02-22 20:52:00,
2013-02-22 16:02:00,41.0,28.0,-100.00,ESE,102,2.0,3.0,59,0.00,,,-99.99,,2013-02-22 21:02:00,
2013-02-22 16:11:00,41.0,28.0,-100.00,ESE,102,2.0,3.0,59,0.00,,,-99.99,,2013-02-22 21:11:00,
2013-02-22 16:21:00,41.0,28.0,-100.00,ESE,102,2.0,3.0,59,0.00,,,-99.99,,2013-02-22 21:21:00,
2013-02-22 16:32:00,41.0,26.0,-100.00,ESE,123,1.0,2.0,56,0.00,,,-99.99,,2013-02-22 21:32:00,
2013-02-22 16:42:00,41.0,26.0,-100.00,ESE,123,1.0,2.0,56,0.00,,,-99.99,,2013-02-22 21:42:00,
2013-02-22 16:52:00,41.0,28.0,-100.00,SE,126,2.0,3.0,61,0.00,,,-99.99,,2013-02-22 21:52:00,
2013-02-22 17:01:00,41.0,28.0,-100.00,SE,126,2.0,3.0,61,0.00,,,-99.99,,2013-02-22 22:01:00,
2013-02-22 17:11:00,41.0,28.0,-100.00,ESE,106,2.0,3.0,59,0.00,,,-99.99,,2013-02-22 22:11:00,
2013-02-22 17:21:00,41.0,28.0,-100.00,SE,124,2.0,3.0,59,0.00,,,-99.99,,2013-02-22 22:21:00,
2013-02-22 17:32:00,41.0,28.0,-100.00,SE,124,2.0,3.0,59,0.00,,,-99.99,,2013-02-22 22:32:00,
2013-02-22 17:42:00,41.0,28.0,-100.00,SE,124,2.0,3.0,59,0.00,,,-99.99,,2013-02-22 22:42:00,
2013-02-22 17:52:00,40.0,28.0,-100.00,ESE,107,1.0,2.0,61,0.00,,,-99.99,,2013-02-22 22:52:00,
2013-02-22 18:01:00,40.0,28.0,-100.00,ESE,107,1.0,2.0,61,0.00,,,-99.99,,2013-02-22 23:01:00,
2013-02-22 18:11:00,40.0,27.0,-100.00,ESE,104,1.0,2.0,59,0.00,,,-99.99,,2013-02-22 23:11:00,
2013-02-22 18:21:00,40.0,27.0,-100.00,ESE,104,1.0,2.0,59,0.00,,,-99.99,,2013-02-22 23:21:00,
2013-02-22 18:32:00,39.0,30.0,-100.00,WSW,237,1.0,1.0,71,0.00,,,-99.99,,2013-02-22 23:32:00,
2013-02-22 18:42:00,39.0,31.0,-100.00,SSW,195,1.0,2.0,75,0.00,,,-99.99,,2013-02-22 23:42:00,
2013-02-22 18:52:00,39.0,31.0,-100.00,SSW,195,1.0,2.0,75,0.00,,,-99.99,,2013-02-22 23:52:00,
2013-02-22 19:02:00,39.0,31.0,-100.00,SSW,195,1.0,2.0,75,0.00,,,-99.99,,2013-02-23 00:02:00,
2013-02-22 19:11:00,38.0,29.0,-100.00,SSE,162,2.0,6.0,69,0.00,,,-99.99,,2013-02-23 00:11:00,
2013-02-22 19:21:00,38.0,29.0,-100.00,SSE,162,2.0,6.0,69,0.00,,,-99.99,,2013-02-23 00:21:00,
2013-02-22 19:32:00,39.0,30.0,-100.00,SE,137,2.0,4.0,71,0.00,,,-99.99,,2013-02-23 00:32:00,
2013-02-22 19:42:00,39.0,30.0,-100.00,SE,137,2.0,4.0,71,0.00,,,-99.99,,2013-02-23 00:42:00,
2013-02-22 19:52:00,39.0,31.0,-100.00,ESE,121,3.0,5.0,74,0.00,,,-99.99,,2013-02-23 00:52:00,
2013-02-22 20:01:00,39.0,31.0,-100.00,ESE,121,3.0,5.0,74,0.00,,,-99.99,,2013-02-23 01:01:00,
2013-02-22 20:11:00,38.0,32.0,-100.00,ESE,103,3.0,5.0,77,0.01,,,-99.99,,2013-02-23 01:11:00,
2013-02-22 20:21:00,38.0,32.0,-100.00,ESE,103,3.0,5.0,77,0.01,,,-99.99,,2013-02-23 01:21:00,
2013-02-22 20:32:00,38.0,32.0,-100.00,SE,131,2.0,3.0,79,0.54,,,-99.99,,2013-02-23 01:32:00,
2013-02-22 20:42:00,38.0,32.0,-100.00,SE,131,2.0,3.0,79,0.54,,,-99.99,,2013-02-23 01:42:00,
2013-02-22 20:52:00,36.0,33.0,-100.00,South,169,0.0,1.0,88,0.37,,,-99.99,,2013-02-23 01:52:00,
2013-02-22 21:01:00,36.0,33.0,-100.00,South,169,0.0,1.0,88,0.37,,,-99.99,,2013-02-23 02:01:00,
2013-02-22 21:11:00,36.0,34.0,-100.00,SE,144,1.0,1.0,91,0.00,,,-99.99,,2013-02-23 02:11:00,
2013-02-22 21:21:00,36.0,34.0,-100.00,SE,144,1.0,1.0,91,0.00,,,-99.99,,2013-02-23 02:21:00,
2013-02-22 21:32:00,36.0,34.0,-100.00,SSE,150,2.0,4.0,92,0.00,,,-99.99,,2013-02-23 02:32:00,
2013-02-22 21:42:00,36.0,34.0,-100.00,SSE,150,2.0,4.0,92,0.00,,,-99.99,,2013-02-23 02:42:00,
2013-02-22 21:52:00,36.0,34.0,-100.00,SE,124,2.0,2.0,92,0.00,,,-99.99,,2013-02-23 02:52:00,
2013-02-22 22:02:00,36.0,34.0,-100.00,ENE,68,3.0,7.0,93,0.01,,,-99.99,,2013-02-23 03:02:00,
2013-02-22 22:11:00,36.0,34.0,-100.00,ENE,68,3.0,7.0,93,0.01,,,-99.99,,2013-02-23 03:11:00,
2013-02-22 22:21:00,36.0,34.0,-100.00,East,83,3.0,5.0,94,0.01,,,-99.99,,2013-02-23 03:21:00,
2013-02-22 22:32:00,36.0,34.0,-100.00,East,83,3.0,5.0,94,0.01,,,-99.99,,2013-02-23 03:32:00,
2013-02-22 22:42:00,36.0,34.0,-100.00,East,83,3.0,5.0,94,0.01,,,-99.99,,2013-02-23 03:42:00,
2013-02-22 22:52:00,36.0,35.0,-100.00,ESE,120,1.0,2.0,95,0.06,,,-99.99,,2013-02-23 03:52:00,
2013-02-22 23:01:00,36.0,35.0,-100.00,ESE,120,1.0,2.0,95,0.06,,,-99.99,,2013-02-23 04:01:00,
2013-02-22 23:11:00,36.0,35.0,-100.00,East,96,2.0,3.0,96,0.10,,,-99.99,,2013-02-23 04:11:00,
2013-02-22 23:21:00,36.0,35.0,-100.00,East,96,2.0,3.0,96,0.10,,,-99.99,,2013-02-23 04:21:00,
2013-02-22 23:32:00,36.0,35.0,-100.00,ESE,107,2.0,2.0,96,0.00,,,-99.99,,2013-02-23 04:32:00,
2013-02-22 23:42:00,36.0,35.0,-100.00,ESE,107,2.0,2.0,96,0.00,,,-99.99,,2013-02-23 04:42:00,
2013-02-22 23:52:00,36.0,35.0,-100.00,ENE,75,2.0,3.0,96,0.01,,,-99.99,,2013-02-23 04:52:00,